createdAt,value
2022-09-23T00:02:06.568Z,5.20
2022-09-23T00:04:33.195Z,5.13
2022-09-23T00:06:59.774Z,5.10
2022-09-23T00:09:26.378Z,5.21
2022-09-23T00:11:52.935Z,5.25
2022-09-23T00:14:19.529Z,5.41
2022-09-23T00:16:46.171Z,5.51
2022-09-23T00:19:12.767Z,5.20
2022-09-23T00:21:39.327Z,4.99
2022-09-23T00:24:08.096Z,5.01
2022-09-23T00:26:34.769Z,4.91
2022-09-23T00:29:01.335Z,4.82
2022-09-23T00:31:28.041Z,4.93
2022-09-23T00:33:56.732Z,4.91
2022-09-23T00:36:24.315Z,4.90
2022-09-23T00:38:51.066Z,4.88
2022-09-23T00:41:18.180Z,4.92
2022-09-23T00:43:47.720Z,4.99
2022-09-23T00:46:32.531Z,5.16
2022-09-23T00:49:05.963Z,5.25
2022-09-23T00:51:39.759Z,4.89
2022-09-23T00:54:07.015Z,4.77
2022-09-23T00:56:35.398Z,4.74
2022-09-23T00:59:03.030Z,4.67
2022-09-23T01:01:29.911Z,4.54
2022-09-23T01:03:57.641Z,4.50
2022-09-23T01:06:24.347Z,4.37
2022-09-23T01:08:51.736Z,4.44
2022-09-23T01:11:40.238Z,4.56
2022-09-23T01:14:27.765Z,4.75
2022-09-23T01:17:04.016Z,4.76
2022-09-23T01:20:05.940Z,4.82
2022-09-23T01:22:44.824Z,4.92
2022-09-23T01:25:41.475Z,4.70
2022-09-23T01:28:24.904Z,4.62
2022-09-23T01:31:05.483Z,4.61
2022-09-23T01:33:54.434Z,4.49
2022-09-23T01:36:33.730Z,4.62
2022-09-23T01:39:11.872Z,4.63
2022-09-23T01:41:47.411Z,4.65
2022-09-23T01:44:29.569Z,4.72
2022-09-23T01:47:02.494Z,4.83
2022-09-23T01:49:38.752Z,4.83
2022-09-23T01:52:16.167Z,4.84
2022-09-23T01:54:50.719Z,4.71
2022-09-23T01:57:27.762Z,4.44
2022-09-23T02:00:04.375Z,4.42
2022-09-23T02:02:37.709Z,4.19
2022-09-23T02:05:11.485Z,4.02
2022-09-23T02:07:39.057Z,4.03
2022-09-23T02:10:13.443Z,3.95
2022-09-23T02:12:46.740Z,3.89
2022-09-23T02:15:19.183Z,3.93
2022-09-23T02:17:47.388Z,4.05
2022-09-23T02:20:20.899Z,4.13
2022-09-23T02:22:56.601Z,4.21
2022-09-23T02:25:34.056Z,4.22
2022-09-23T02:28:16.037Z,4.24
2022-09-23T02:30:51.949Z,4.39
2022-09-23T02:33:24.555Z,4.42
2022-09-23T02:35:55.775Z,4.41
2022-09-23T02:38:37.094Z,4.23
2022-09-23T02:41:16.240Z,4.23
2022-09-23T02:43:52.211Z,4.14
2022-09-23T02:46:19.568Z,4.10
2022-09-23T02:48:56.968Z,3.98
2022-09-23T02:51:28.842Z,3.84
2022-09-23T02:53:58.376Z,3.74
2022-09-23T02:56:25.188Z,3.75
2022-09-23T02:58:54.302Z,3.78
2022-09-23T03:01:37.373Z,3.66
2022-09-23T03:04:06.792Z,3.81
2022-09-23T03:06:48.737Z,3.93
2022-09-23T03:09:23.261Z,3.96
2022-09-23T03:11:58.805Z,3.91
2022-09-23T03:14:36.736Z,3.88
2022-09-23T03:17:10.586Z,3.72
2022-09-23T03:19:53.356Z,3.58
2022-09-23T03:22:33.710Z,3.82
2022-09-23T03:25:07.140Z,3.92
2022-09-23T03:27:36.549Z,3.96
2022-09-23T03:30:05.241Z,3.99
2022-09-23T03:32:34.496Z,3.94
2022-09-23T03:35:03.197Z,3.92
2022-09-23T03:37:35.799Z,3.76
2022-09-23T03:40:15.049Z,3.53
2022-09-23T03:42:42.208Z,3.49
2022-09-23T03:45:18.337Z,3.45
2022-09-23T03:47:45.964Z,3.41
2022-09-23T03:50:13.441Z,3.34
2022-09-23T03:52:40.515Z,3.45
2022-09-23T03:55:07.890Z,3.53
2022-09-23T03:57:34.765Z,3.62
2022-09-23T04:00:01.900Z,3.63
2022-09-23T04:02:28.481Z,3.54
2022-09-23T04:04:56.061Z,3.67
2022-09-23T04:07:22.606Z,3.55
2022-09-23T04:09:49.256Z,3.61
2022-09-23T04:12:16.836Z,3.43
2022-09-23T04:14:44.214Z,3.63
2022-09-23T04:17:11.564Z,3.72
2022-09-23T04:19:38.443Z,3.68
2022-09-23T04:22:05.711Z,3.55
2022-09-23T04:24:32.322Z,3.28
2022-09-23T04:27:01.803Z,3.23
2022-09-23T04:29:28.492Z,3.05
2022-09-23T04:31:55.601Z,2.99
2022-09-23T04:34:22.249Z,3.13
2022-09-23T04:36:49.490Z,3.32
2022-09-23T04:39:16.778Z,3.46
2022-09-23T04:41:44.644Z,3.40
2022-09-23T04:44:12.530Z,3.20
2022-09-23T04:46:40.857Z,3.12
2022-09-23T04:49:08.320Z,3.29
2022-09-23T04:51:35.497Z,3.27
2022-09-23T04:54:02.204Z,3.20
2022-09-23T04:56:32.816Z,3.15
2022-09-23T04:59:01.803Z,3.19
2022-09-23T05:01:32.598Z,3.29
2022-09-23T05:04:02.460Z,3.40
2022-09-23T05:06:31.580Z,3.21
2022-09-23T05:08:59.279Z,3.02
2022-09-23T05:11:28.955Z,2.96
2022-09-23T05:13:55.580Z,3.03
2022-09-23T05:16:23.582Z,3.00
2022-09-23T05:18:51.901Z,2.93
2022-09-23T05:21:21.413Z,2.86
2022-09-23T05:23:50.173Z,2.82
2022-09-23T05:26:16.847Z,2.93
2022-09-23T05:28:43.514Z,3.05
2022-09-23T05:31:19.975Z,3.24
2022-09-23T05:33:51.749Z,3.23
2022-09-23T05:36:20.585Z,3.12
2022-09-23T05:38:51.338Z,3.07
2022-09-23T05:41:24.807Z,3.21
2022-09-23T05:43:53.136Z,3.23
2022-09-23T05:46:23.210Z,3.15
2022-09-23T05:48:51.231Z,3.30
2022-09-23T05:51:27.507Z,3.27
2022-09-23T05:53:58.344Z,3.23
2022-09-23T05:56:27.476Z,2.98
2022-09-23T05:58:55.617Z,3.17
2022-09-23T06:01:25.036Z,3.19
2022-09-23T06:03:53.086Z,3.00
2022-09-23T06:06:21.796Z,3.02
2022-09-23T06:08:48.674Z,2.97
2022-09-23T06:11:15.371Z,3.13
2022-09-23T06:13:42.002Z,3.14
2022-09-23T06:16:11.910Z,3.26
2022-09-23T06:18:40.297Z,3.10
2022-09-23T06:21:07.804Z,3.20
2022-09-23T06:23:37.360Z,3.20
2022-09-23T06:26:08.166Z,3.39
2022-09-23T06:28:37.474Z,3.46
2022-09-23T06:31:12.936Z,3.54
2022-09-23T06:33:40.072Z,3.48
2022-09-23T06:36:07.971Z,3.60
2022-09-23T06:38:34.986Z,3.71
2022-09-23T06:41:03.440Z,3.85
2022-09-23T06:43:30.912Z,3.73
2022-09-23T06:46:00.605Z,3.73
2022-09-23T06:48:28.717Z,3.79
2022-09-23T06:50:59.651Z,3.74
2022-09-23T06:53:26.216Z,3.82
2022-09-23T06:56:04.197Z,4.11
2022-09-23T06:58:31.953Z,4.21
2022-09-23T07:01:04.415Z,4.16
2022-09-23T07:03:31.909Z,4.27
2022-09-23T07:05:59.307Z,4.33
2022-09-23T07:08:27.604Z,4.40
2022-09-23T07:10:59.233Z,4.60
2022-09-23T07:13:26.600Z,4.76
2022-09-23T07:15:56.223Z,4.90
2022-09-23T07:18:23.985Z,4.99
2022-09-23T07:20:50.649Z,5.00
2022-09-23T07:23:18.536Z,5.03
2022-09-23T07:25:47.199Z,5.09
2022-09-23T07:28:13.847Z,5.35
2022-09-23T07:30:49.554Z,5.56
2022-09-23T07:33:31.619Z,5.60
2022-09-23T07:35:59.150Z,5.80
2022-09-23T07:38:29.969Z,5.81
2022-09-23T07:41:07.544Z,5.97
2022-09-23T07:43:34.154Z,6.09
2022-09-23T07:46:04.784Z,6.25
2022-09-23T07:48:34.453Z,6.32
2022-09-23T07:51:07.371Z,6.52
2022-09-23T07:53:34.064Z,6.72
2022-09-23T07:56:00.673Z,6.96
2022-09-23T07:58:27.289Z,7.12
2022-09-23T08:00:54.111Z,7.34
2022-09-23T08:03:21.344Z,7.54
2022-09-23T08:05:48.211Z,7.78
2022-09-23T08:08:14.941Z,7.97
2022-09-23T08:10:41.588Z,8.23
2022-09-23T08:13:08.236Z,8.38
2022-09-23T08:15:34.944Z,8.54
2022-09-23T08:18:01.885Z,8.73
2022-09-23T08:20:46.543Z,8.75
2022-09-23T08:23:16.252Z,8.94
2022-09-23T08:25:47.104Z,9.04
2022-09-23T08:28:16.743Z,9.15
2022-09-23T08:30:48.024Z,9.28
2022-09-23T08:33:15.970Z,9.35
2022-09-23T08:35:45.565Z,9.46
2022-09-23T08:38:12.153Z,9.63
2022-09-23T08:40:44.089Z,9.84
2022-09-23T08:43:22.086Z,9.89
2022-09-23T08:45:51.184Z,9.84
2022-09-23T08:48:26.632Z,9.90
2022-09-23T08:50:58.815Z,10.15
2022-09-23T08:53:29.539Z,10.30
2022-09-23T08:55:59.646Z,10.39
2022-09-23T08:58:57.131Z,10.42
2022-09-23T09:01:44.882Z,10.51
2022-09-23T09:04:32.360Z,10.67
2022-09-23T09:07:38.685Z,10.80
2022-09-23T09:10:10.568Z,10.96
2022-09-23T09:12:47.242Z,11.04
2022-09-23T09:15:16.749Z,11.14
2022-09-23T09:18:03.795Z,11.17
2022-09-23T09:20:32.388Z,11.25
2022-09-23T09:23:00.592Z,11.34
2022-09-23T09:25:49.390Z,11.42
2022-09-23T09:28:22.068Z,11.42
2022-09-23T09:30:56.500Z,11.51
2022-09-23T09:33:31.150Z,11.68
2022-09-23T09:36:30.869Z,11.73
2022-09-23T09:39:00.888Z,11.79
2022-09-23T09:41:31.929Z,11.88
2022-09-23T09:44:07.873Z,11.83
2022-09-23T09:46:50.954Z,11.91
2022-09-23T09:49:38.085Z,12.05
2022-09-23T09:52:29.567Z,12.23
2022-09-23T09:55:22.885Z,12.31
2022-09-23T09:57:55.031Z,12.32
2022-09-23T10:00:21.530Z,12.37
2022-09-23T10:02:59.731Z,12.57
2022-09-23T10:05:31.868Z,12.61
2022-09-23T10:08:24.660Z,12.67
2022-09-23T10:10:54.862Z,12.59
2022-09-23T10:13:24.373Z,12.80
2022-09-23T10:15:54.826Z,12.89
2022-09-23T10:18:37.512Z,13.13
2022-09-23T10:21:08.109Z,13.29
2022-09-23T10:23:40.204Z,13.41
2022-09-23T10:26:08.305Z,13.54
2022-09-23T10:28:52.310Z,13.66
2022-09-23T10:31:25.903Z,13.61
2022-09-23T10:33:52.517Z,13.73
2022-09-23T10:36:19.225Z,13.88
2022-09-23T10:38:50.763Z,14.00
2022-09-23T10:41:47.143Z,13.93
2022-09-23T10:44:50.709Z,14.20
2022-09-23T10:47:41.920Z,14.33
2022-09-23T10:50:43.160Z,14.31
2022-09-23T10:53:24.634Z,14.53
2022-09-23T10:55:59.215Z,14.44
2022-09-23T10:58:25.739Z,14.33
2022-09-23T11:01:22.778Z,14.11
2022-09-23T11:04:01.278Z,14.43
2022-09-23T11:06:54.199Z,14.66
2022-09-23T11:09:49.465Z,14.46
2022-09-23T11:12:41.392Z,14.62
2022-09-23T11:15:31.143Z,14.68
2022-09-23T11:18:29.207Z,14.75
2022-09-23T11:21:21.041Z,14.92
2022-09-23T11:24:07.060Z,15.05
2022-09-23T11:27:04.983Z,15.20
2022-09-23T11:29:42.976Z,15.07
2022-09-23T11:32:40.648Z,15.23
2022-09-23T11:35:37.774Z,15.39
2022-09-23T11:38:12.048Z,15.38
2022-09-23T11:40:45.533Z,15.12
2022-09-23T11:43:14.136Z,14.92
2022-09-23T11:45:47.175Z,14.72
2022-09-23T11:48:21.824Z,15.05
2022-09-23T11:50:57.355Z,15.30
2022-09-23T11:53:38.051Z,15.31
2022-09-23T11:56:30.087Z,15.11
2022-09-23T11:59:10.093Z,14.92
2022-09-23T12:01:45.799Z,14.86
2022-09-23T12:04:23.012Z,14.73
2022-09-23T12:06:58.907Z,14.76
2022-09-23T12:09:56.570Z,14.70
2022-09-23T12:12:27.235Z,14.63
2022-09-23T12:15:06.096Z,14.63
2022-09-23T12:18:01.589Z,14.87
2022-09-23T12:20:53.831Z,14.90
2022-09-23T12:23:47.782Z,15.25
2022-09-23T12:26:19.813Z,15.49
2022-09-23T12:28:50.008Z,15.74
2022-09-23T12:31:20.749Z,15.89
2022-09-23T12:33:53.703Z,16.02
2022-09-23T12:36:35.615Z,16.10
2022-09-23T12:39:17.568Z,16.19
2022-09-23T12:41:47.576Z,16.25
2022-09-23T12:44:26.468Z,16.13
2022-09-23T12:47:29.501Z,16.18
2022-09-23T12:49:58.133Z,16.15
2022-09-23T12:52:28.150Z,16.08
2022-09-23T12:55:02.950Z,15.95
2022-09-23T12:57:41.612Z,15.88
2022-09-23T13:00:11.575Z,15.99
2022-09-23T13:02:40.986Z,16.16
2022-09-23T13:05:33.114Z,16.34
2022-09-23T13:08:05.322Z,16.36
2022-09-23T13:10:38.564Z,16.24
2022-09-23T13:13:06.715Z,16.25
2022-09-23T13:15:35.883Z,16.09
2022-09-23T13:18:18.686Z,16.06
2022-09-23T13:20:47.064Z,16.15
2022-09-23T13:23:23.556Z,16.32
2022-09-23T13:25:53.258Z,16.33
2022-09-23T13:28:39.148Z,16.52
2022-09-23T13:31:13.767Z,16.39
2022-09-23T13:33:45.733Z,16.43
2022-09-23T13:36:16.752Z,16.43
2022-09-23T13:38:43.628Z,16.56
2022-09-23T13:41:18.012Z,16.55
2022-09-23T13:43:52.569Z,16.71
2022-09-23T13:46:21.840Z,16.58
2022-09-23T13:48:54.665Z,16.43
2022-09-23T13:51:30.287Z,16.49
2022-09-23T13:53:59.432Z,16.37
2022-09-23T13:56:29.057Z,16.20
2022-09-23T13:59:23.556Z,16.34
2022-09-23T14:01:50.444Z,16.23
2022-09-23T14:04:25.475Z,16.18
2022-09-23T14:06:53.836Z,16.39
2022-09-23T14:09:24.811Z,16.52
2022-09-23T14:11:52.118Z,16.46
2022-09-23T14:14:20.542Z,16.47
2022-09-23T14:16:49.997Z,16.37
2022-09-23T14:19:18.677Z,16.28
2022-09-23T14:21:49.212Z,16.13
2022-09-23T14:24:33.381Z,16.14
2022-09-23T14:27:15.437Z,16.13
2022-09-23T14:29:46.500Z,16.14
2022-09-23T14:32:23.344Z,16.20
2022-09-23T14:34:51.071Z,16.20
2022-09-23T14:37:33.998Z,16.24
2022-09-23T14:40:00.994Z,16.08
2022-09-23T14:42:29.830Z,16.18
2022-09-23T14:44:56.718Z,16.16
2022-09-23T14:47:25.041Z,16.17
2022-09-23T14:50:11.719Z,16.19
2022-09-23T14:52:38.201Z,16.20
2022-09-23T14:55:05.989Z,16.00
2022-09-23T14:57:32.626Z,15.99
2022-09-23T15:00:09.220Z,16.00
2022-09-23T15:02:38.228Z,15.93
2022-09-23T15:05:22.410Z,16.08
2022-09-23T15:07:51.592Z,16.04
2022-09-23T15:10:23.663Z,16.17
2022-09-23T15:12:53.659Z,16.09
2022-09-23T15:15:28.083Z,16.06
2022-09-23T15:17:55.174Z,16.05
2022-09-23T15:20:24.670Z,16.01
2022-09-23T15:22:54.277Z,16.02
2022-09-23T15:25:28.215Z,16.05
2022-09-23T15:27:58.404Z,16.05
2022-09-23T15:30:25.045Z,16.05
2022-09-23T15:32:51.679Z,16.01
2022-09-23T15:35:22.272Z,15.86
2022-09-23T15:37:50.337Z,15.81
2022-09-23T15:40:28.181Z,15.80
2022-09-23T15:42:57.775Z,15.70
2022-09-23T15:45:35.871Z,15.60
2022-09-23T15:48:10.695Z,15.54
2022-09-23T15:50:39.362Z,15.47
2022-09-23T15:53:06.407Z,15.42
2022-09-23T15:55:33.776Z,15.25
2022-09-23T15:58:02.928Z,15.09
2022-09-23T16:00:29.802Z,14.94
2022-09-23T16:02:56.425Z,14.86
2022-09-23T16:05:26.638Z,14.78
2022-09-23T16:07:53.443Z,14.68
2022-09-23T16:10:21.687Z,14.61
2022-09-23T16:12:49.156Z,14.54
2022-09-23T16:15:19.224Z,14.56
2022-09-23T16:17:45.939Z,14.44
2022-09-23T16:20:18.097Z,14.38
2022-09-23T16:22:52.471Z,14.44
2022-09-23T16:25:20.278Z,14.37
2022-09-23T16:27:46.964Z,14.25
2022-09-23T16:30:13.527Z,14.12
2022-09-23T16:32:40.141Z,14.02
2022-09-23T16:35:08.451Z,13.87
2022-09-23T16:37:35.235Z,13.77
2022-09-23T16:40:03.884Z,13.74
2022-09-23T16:42:30.468Z,13.58
2022-09-23T16:44:57.018Z,13.51
2022-09-23T16:47:23.634Z,13.37
2022-09-23T16:49:50.186Z,13.40
2022-09-23T16:52:16.975Z,13.29
2022-09-23T16:54:43.750Z,13.14
2022-09-23T16:57:13.134Z,13.08
2022-09-23T16:59:55.224Z,12.95
2022-09-23T17:02:37.304Z,12.85
2022-09-23T17:05:04.311Z,12.81
2022-09-23T17:07:32.037Z,12.79
2022-09-23T17:09:58.593Z,12.66
2022-09-23T17:12:33.375Z,12.58
2022-09-23T17:15:00.614Z,12.46
2022-09-23T17:17:28.478Z,12.35
2022-09-23T17:19:55.035Z,12.30
2022-09-23T17:22:21.624Z,12.29
2022-09-23T17:24:48.174Z,12.17
2022-09-23T17:27:17.175Z,12.09
2022-09-23T17:29:44.503Z,12.06
2022-09-23T17:32:11.185Z,11.84
2022-09-23T17:34:37.839Z,11.82
2022-09-23T17:37:04.413Z,11.77
2022-09-23T17:39:31.714Z,11.71
2022-09-23T17:42:01.808Z,11.61
2022-09-23T17:44:32.369Z,11.59
2022-09-23T17:46:58.904Z,11.49
2022-09-23T17:49:25.526Z,11.41
2022-09-23T17:51:52.119Z,11.18
2022-09-23T17:54:18.684Z,11.13
2022-09-23T17:56:45.225Z,11.15
2022-09-23T17:59:13.199Z,11.11
2022-09-23T18:01:39.981Z,10.92
2022-09-23T18:04:07.193Z,10.95
2022-09-23T18:06:37.298Z,10.81
2022-09-23T18:09:06.687Z,10.89
2022-09-23T18:11:37.317Z,10.89
2022-09-23T18:14:08.417Z,10.85
2022-09-23T18:16:37.558Z,10.79
2022-09-23T18:19:05.883Z,10.65
2022-09-23T18:21:35.773Z,10.52
2022-09-23T18:24:28.051Z,10.55
2022-09-23T18:26:50.348Z,10.37
2022-09-23T18:29:17.058Z,10.20
2022-09-23T18:31:45.195Z,10.20
2022-09-23T18:34:13.976Z,10.29
2022-09-23T18:36:40.611Z,10.33
2022-09-23T18:39:07.494Z,10.33
2022-09-23T18:41:35.111Z,10.23
2022-09-23T18:44:02.335Z,10.32
2022-09-23T18:46:30.568Z,10.32
2022-09-23T18:49:12.906Z,10.33
2022-09-23T18:51:48.447Z,10.31
2022-09-23T18:54:15.437Z,10.29
2022-09-23T18:56:43.761Z,10.32
2022-09-23T18:59:17.714Z,10.33
2022-09-23T19:01:45.870Z,10.37
2022-09-23T19:04:14.242Z,10.35
2022-09-23T19:06:41.052Z,10.38
2022-09-23T19:09:08.445Z,10.37
2022-09-23T19:11:36.535Z,10.36
2022-09-23T19:14:06.438Z,10.33
2022-09-23T19:16:34.851Z,10.29
2022-09-23T19:19:02.746Z,10.21
2022-09-23T19:21:30.428Z,10.09
2022-09-23T19:24:03.647Z,9.96
2022-09-23T19:26:34.652Z,9.92
2022-09-23T19:29:03.338Z,10.01
2022-09-23T19:31:33.485Z,9.87
2022-09-23T19:34:02.604Z,9.78
2022-09-23T19:36:33.453Z,9.84
2022-09-23T19:39:04.761Z,9.62
2022-09-23T19:41:33.369Z,9.65
2022-09-23T19:44:03.180Z,9.71
2022-09-23T19:46:31.177Z,9.49
2022-09-23T19:48:58.479Z,9.57
2022-09-23T19:51:25.112Z,9.60
2022-09-23T19:53:52.032Z,9.61
2022-09-23T19:56:19.114Z,9.63
2022-09-23T19:58:48.272Z,9.62
2022-09-23T20:01:17.188Z,9.46
2022-09-23T20:03:45.064Z,9.50
2022-09-23T20:06:11.614Z,9.30
2022-09-23T20:08:38.727Z,9.22
2022-09-23T20:11:10.300Z,9.19
2022-09-23T20:13:38.819Z,9.24
2022-09-23T20:16:11.284Z,9.29
2022-09-23T20:18:38.725Z,9.17
2022-09-23T20:21:06.756Z,9.15
2022-09-23T20:23:33.645Z,9.02
2022-09-23T20:26:17.155Z,8.92
2022-09-23T20:28:43.754Z,8.72
2022-09-23T20:31:11.881Z,8.83
2022-09-23T20:33:41.505Z,8.75
2022-09-23T20:36:09.415Z,8.64
2022-09-23T20:38:37.588Z,8.51
2022-09-23T20:41:04.561Z,8.66
2022-09-23T20:43:33.041Z,8.58
2022-09-23T20:46:00.160Z,8.45
2022-09-23T20:48:26.743Z,8.38
2022-09-23T20:50:53.406Z,8.42
2022-09-23T20:53:22.227Z,8.41
2022-09-23T20:55:52.079Z,8.52
2022-09-23T20:58:19.103Z,8.44
2022-09-23T21:00:45.937Z,8.33
2022-09-23T21:03:12.990Z,8.32
2022-09-23T21:05:42.054Z,8.36
2022-09-23T21:08:09.056Z,8.27
2022-09-23T21:10:36.124Z,8.40
2022-09-23T21:13:06.878Z,8.49
2022-09-23T21:15:35.617Z,8.35
2022-09-23T21:18:02.173Z,8.29
2022-09-23T21:20:28.739Z,8.32
2022-09-23T21:22:56.328Z,8.31
2022-09-23T21:25:28.095Z,8.47
2022-09-23T21:27:55.690Z,8.44
2022-09-23T21:30:23.024Z,8.33
2022-09-23T21:32:49.656Z,8.30
2022-09-23T21:35:18.877Z,8.24
2022-09-23T21:37:45.974Z,8.28
2022-09-23T21:40:27.973Z,8.18
2022-09-23T21:43:00.249Z,8.30
2022-09-23T21:45:31.619Z,8.36
2022-09-23T21:47:58.193Z,8.32
2022-09-23T21:50:27.884Z,8.23
2022-09-23T21:52:58.297Z,8.29
2022-09-23T21:55:25.548Z,8.37
2022-09-23T21:57:52.151Z,8.41
2022-09-23T22:00:18.837Z,8.35
2022-09-23T22:02:45.376Z,8.33
2022-09-23T22:05:11.939Z,8.27
2022-09-23T22:07:38.555Z,8.35
2022-09-23T22:10:06.064Z,8.23
2022-09-23T22:12:33.658Z,8.30
2022-09-23T22:15:00.246Z,8.31
2022-09-23T22:17:30.149Z,8.26
2022-09-23T22:19:57.259Z,8.26
2022-09-23T22:22:23.813Z,8.17
2022-09-23T22:24:51.382Z,8.14
2022-09-23T22:27:20.013Z,8.24
2022-09-23T22:30:02.437Z,8.11
2022-09-23T22:32:44.463Z,8.13
2022-09-23T22:35:16.517Z,8.08
2022-09-23T22:37:43.842Z,8.04
2022-09-23T22:40:14.698Z,8.08
2022-09-23T22:42:42.295Z,8.13
2022-09-23T22:45:10.361Z,8.08
2022-09-23T22:47:38.882Z,8.02
2022-09-23T22:50:08.021Z,8.07
2022-09-23T22:52:34.858Z,8.01
2022-09-23T22:55:01.839Z,8.07
2022-09-23T22:57:28.372Z,7.98
2022-09-23T22:59:54.977Z,8.04
2022-09-23T23:02:23.682Z,8.15
2022-09-23T23:04:50.703Z,8.17
2022-09-23T23:07:21.511Z,8.09
2022-09-23T23:09:50.217Z,8.14
2022-09-23T23:12:18.892Z,8.08
2022-09-23T23:14:46.530Z,8.06
2022-09-23T23:17:13.367Z,7.98
2022-09-23T23:19:39.974Z,7.89
2022-09-23T23:22:06.568Z,7.85
2022-09-23T23:24:33.287Z,7.90
2022-09-23T23:26:59.869Z,7.95
2022-09-23T23:29:27.811Z,8.02
2022-09-23T23:31:54.748Z,7.90
2022-09-23T23:34:21.767Z,7.91
2022-09-23T23:36:54.773Z,7.98
2022-09-23T23:39:24.565Z,7.94
2022-09-23T23:41:55.156Z,8.04
2022-09-23T23:44:23.889Z,7.92
2022-09-23T23:46:51.206Z,7.97
2022-09-23T23:49:17.977Z,7.92
2022-09-23T23:51:44.808Z,7.89
2022-09-23T23:54:13.038Z,7.73
2022-09-23T23:56:39.610Z,7.66
2022-09-23T23:59:06.247Z,7.67
